Terminal Aerodrome Forecast
Issued by NWS

Home | Current Version | Previous Version | Text Only | Print | Product List | Glossary On
Versions: 1 2 3 4 5 6 7 8 9 10 11 12 13 14 15
711
FTUS45 KFGZ 231734
TAFPRC
TAF
KPRC 231734Z 2318/2418 25012G25KT P6SM SCT030 BKN045
     FM240300 24012KT P6SM SCT040 SCT080=

USA.gov is the U.S. government's official web portal to all federal, state and local government web resources and services.